sensor_id;sensor_type;location;lat;lon;timestamp;pressure;altitude;pressure_sealevel;temperature;humidity
47716;BME280;33476;50.984;3.538;2023-07-09T00:00:42;101721.81;;;25.76;54.47
47716;BME280;33476;50.984;3.538;2023-07-09T00:03:09;101730.00;;;25.75;54.92
47716;BME280;33476;50.984;3.538;2023-07-09T00:05:35;101733.19;;;25.79;54.64
47716;BME280;33476;50.984;3.538;2023-07-09T00:08:01;101716.31;;;25.78;54.36
47716;BME280;33476;50.984;3.538;2023-07-09T00:10:26;101725.19;;;25.79;54.19
47716;BME280;33476;50.984;3.538;2023-07-09T00:12:51;101727.00;;;25.78;54.10
47716;BME280;33476;50.984;3.538;2023-07-09T00:15:17;101723.06;;;25.82;54.01
47716;BME280;33476;50.984;3.538;2023-07-09T00:17:43;101721.22;;;25.83;53.72
47716;BME280;33476;50.984;3.538;2023-07-09T00:20:14;101728.00;;;25.77;54.03
47716;BME280;33476;50.984;3.538;2023-07-09T00:22:41;101732.66;;;25.75;54.01
47716;BME280;33476;50.984;3.538;2023-07-09T00:25:10;101729.44;;;25.71;53.86
47716;BME280;33476;50.984;3.538;2023-07-09T00:27:39;101732.81;;;25.73;53.91
47716;BME280;33476;50.984;3.538;2023-07-09T00:30:08;101730.41;;;25.70;53.90
47716;BME280;33476;50.984;3.538;2023-07-09T00:32:37;101730.56;;;25.69;53.92
47716;BME280;33476;50.984;3.538;2023-07-09T00:35:09;101732.69;;;25.65;53.72
47716;BME280;33476;50.984;3.538;2023-07-09T00:37:34;101729.78;;;25.59;53.87
47716;BME280;33476;50.984;3.538;2023-07-09T00:39:59;101725.53;;;25.56;53.99
47716;BME280;33476;50.984;3.538;2023-07-09T00:42:25;101725.00;;;25.53;54.19
47716;BME280;33476;50.984;3.538;2023-07-09T00:44:51;101726.59;;;25.45;54.44
47716;BME280;33476;50.984;3.538;2023-07-09T00:49:43;101728.75;;;25.42;54.54
47716;BME280;33476;50.984;3.538;2023-07-09T00:54:45;101726.66;;;25.36;54.40
47716;BME280;33476;50.984;3.538;2023-07-09T00:57:17;101734.25;;;25.31;54.58
47716;BME280;33476;50.984;3.538;2023-07-09T00:59:50;101733.03;;;25.25;54.66
47716;BME280;33476;50.984;3.538;2023-07-09T01:02:20;101746.69;;;25.22;55.07
47716;BME280;33476;50.984;3.538;2023-07-09T01:04:50;101739.94;;;25.18;54.96
47716;BME280;33476;50.984;3.538;2023-07-09T01:07:16;101733.34;;;25.12;54.98
47716;BME280;33476;50.984;3.538;2023-07-09T01:09:42;101737.16;;;25.10;55.15
47716;BME280;33476;50.984;3.538;2023-07-09T01:12:09;101738.72;;;25.03;55.35
47716;BME280;33476;50.984;3.538;2023-07-09T01:14:35;101742.25;;;25.03;55.53
47716;BME280;33476;50.984;3.538;2023-07-09T01:17:05;101744.63;;;24.97;55.56
47716;BME280;33476;50.984;3.538;2023-07-09T01:19:38;101736.47;;;24.88;55.76
47716;BME280;33476;50.984;3.538;2023-07-09T01:22:16;101740.00;;;24.89;55.81
47716;BME280;33476;50.984;3.538;2023-07-09T01:25:03;101736.78;;;24.85;55.85
47716;BME280;33476;50.984;3.538;2023-07-09T01:30:08;101742.69;;;24.79;55.30
47716;BME280;33476;50.984;3.538;2023-07-09T01:32:34;101745.50;;;24.78;55.03
47716;BME280;33476;50.984;3.538;2023-07-09T01:35:02;101747.63;;;24.74;54.95
47716;BME280;33476;50.984;3.538;2023-07-09T01:37:33;101744.81;;;24.76;54.78
47716;BME280;33476;50.984;3.538;2023-07-09T01:39:59;101744.09;;;24.74;54.28
47716;BME280;33476;50.984;3.538;2023-07-09T01:42:26;101746.06;;;24.72;54.18
47716;BME280;33476;50.984;3.538;2023-07-09T01:44:54;101743.69;;;24.69;54.20
47716;BME280;33476;50.984;3.538;2023-07-09T01:47:21;101748.06;;;24.70;54.19
47716;BME280;33476;50.984;3.538;2023-07-09T01:49:49;101741.72;;;24.71;53.56
47716;BME280;33476;50.984;3.538;2023-07-09T01:52:15;101742.84;;;24.68;53.53
47716;BME280;33476;50.984;3.538;2023-07-09T01:54:42;101743.28;;;24.63;53.52
47716;BME280;33476;50.984;3.538;2023-07-09T01:57:22;101737.25;;;24.61;53.54
47716;BME280;33476;50.984;3.538;2023-07-09T01:59:53;101744.81;;;24.56;53.58
47716;BME280;33476;50.984;3.538;2023-07-09T02:02:22;101749.91;;;24.59;53.43
47716;BME280;33476;50.984;3.538;2023-07-09T02:04:50;101752.97;;;24.55;53.72
47716;BME280;33476;50.984;3.538;2023-07-09T02:07:16;101757.63;;;24.53;53.80
47716;BME280;33476;50.984;3.538;2023-07-09T02:09:41;101769.16;;;24.53;53.27
47716;BME280;33476;50.984;3.538;2023-07-09T02:12:08;101771.13;;;24.51;53.53
47716;BME280;33476;50.984;3.538;2023-07-09T02:14:34;101760.31;;;24.53;53.35
47716;BME280;33476;50.984;3.538;2023-07-09T02:16:59;101760.31;;;24.53;53.14
47716;BME280;33476;50.984;3.538;2023-07-09T02:19:24;101762.28;;;24.51;52.82
47716;BME280;33476;50.984;3.538;2023-07-09T02:21:49;101765.78;;;24.51;52.71
47716;BME280;33476;50.984;3.538;2023-07-09T02:24:15;101752.69;;;24.48;52.84
47716;BME280;33476;50.984;3.538;2023-07-09T02:26:40;101760.03;;;24.46;53.02
47716;BME280;33476;50.984;3.538;2023-07-09T02:29:06;101752.00;;;24.46;52.78
47716;BME280;33476;50.984;3.538;2023-07-09T02:31:32;101747.66;;;24.45;52.86
47716;BME280;33476;50.984;3.538;2023-07-09T02:33:59;101754.13;;;24.43;52.91
47716;BME280;33476;50.984;3.538;2023-07-09T02:36:24;101741.19;;;24.38;52.95
47716;BME280;33476;50.984;3.538;2023-07-09T02:38:50;101754.81;;;24.35;53.06
47716;BME280;33476;50.984;3.538;2023-07-09T02:41:15;101742.84;;;24.29;53.34
47716;BME280;33476;50.984;3.538;2023-07-09T02:43:41;101751.16;;;24.26;53.35
47716;BME280;33476;50.984;3.538;2023-07-09T02:46:06;101745.06;;;24.24;53.25
47716;BME280;33476;50.984;3.538;2023-07-09T02:48:31;101748.47;;;24.26;53.34
47716;BME280;33476;50.984;3.538;2023-07-09T02:50:57;101746.34;;;24.20;53.77
47716;BME280;33476;50.984;3.538;2023-07-09T02:53:22;101744.38;;;24.13;53.76
47716;BME280;33476;50.984;3.538;2023-07-09T02:55:47;101748.31;;;24.08;54.00
47716;BME280;33476;50.984;3.538;2023-07-09T02:58:13;101751.94;;;24.07;54.11
47716;BME280;33476;50.984;3.538;2023-07-09T03:00:38;101749.72;;;24.03;54.06
47716;BME280;33476;50.984;3.538;2023-07-09T03:03:03;101740.88;;;24.02;53.79
47716;BME280;33476;50.984;3.538;2023-07-09T03:05:28;101756.28;;;23.99;53.82
47716;BME280;33476;50.984;3.538;2023-07-09T03:07:54;101761.63;;;23.99;54.32
47716;BME280;33476;50.984;3.538;2023-07-09T03:10:19;101760.38;;;23.93;54.31
47716;BME280;33476;50.984;3.538;2023-07-09T03:12:45;101778.31;;;23.91;54.52
47716;BME280;33476;50.984;3.538;2023-07-09T03:15:11;101771.31;;;23.90;54.47
47716;BME280;33476;50.984;3.538;2023-07-09T03:17:37;101777.38;;;23.92;54.29
47716;BME280;33476;50.984;3.538;2023-07-09T03:20:02;101774.81;;;23.91;54.72
47716;BME280;33476;50.984;3.538;2023-07-09T03:22:28;101781.97;;;23.90;54.54
47716;BME280;33476;50.984;3.538;2023-07-09T03:24:53;101775.25;;;23.86;54.36
47716;BME280;33476;50.984;3.538;2023-07-09T03:27:18;101777.75;;;23.88;54.60
47716;BME280;33476;50.984;3.538;2023-07-09T03:29:44;101784.78;;;23.89;54.62
47716;BME280;33476;50.984;3.538;2023-07-09T03:32:09;101779.44;;;23.89;54.37
47716;BME280;33476;50.984;3.538;2023-07-09T03:34:34;101785.06;;;23.86;54.31
47716;BME280;33476;50.984;3.538;2023-07-09T03:37:00;101783.63;;;23.81;54.86
47716;BME280;33476;50.984;3.538;2023-07-09T03:39:25;101790.09;;;23.79;54.74
47716;BME280;33476;50.984;3.538;2023-07-09T03:41:50;101788.41;;;23.78;54.51
47716;BME280;33476;50.984;3.538;2023-07-09T03:44:16;101792.91;;;23.77;54.95
47716;BME280;33476;50.984;3.538;2023-07-09T03:46:41;101793.88;;;23.76;54.69
47716;BME280;33476;50.984;3.538;2023-07-09T03:49:06;101801.06;;;23.76;54.87
47716;BME280;33476;50.984;3.538;2023-07-09T03:51:32;101800.31;;;23.74;55.13
47716;BME280;33476;50.984;3.538;2023-07-09T03:53:57;101801.31;;;23.73;55.08
47716;BME280;33476;50.984;3.538;2023-07-09T03:56:22;101794.97;;;23.74;55.21
47716;BME280;33476;50.984;3.538;2023-07-09T03:58:48;101794.97;;;23.74;55.54
47716;BME280;33476;50.984;3.538;2023-07-09T04:01:13;101800.31;;;23.74;55.42
47716;BME280;33476;50.984;3.538;2023-07-09T04:03:41;101804.69;;;23.75;55.58
47716;BME280;33476;50.984;3.538;2023-07-09T04:06:06;101801.91;;;23.76;55.35
47716;BME280;33476;50.984;3.538;2023-07-09T04:08:32;101795.72;;;23.76;55.64
47716;BME280;33476;50.984;3.538;2023-07-09T04:11:01;101809.16;;;23.74;55.64
47716;BME280;33476;50.984;3.538;2023-07-09T04:13:27;101806.25;;;23.77;55.88
47716;BME280;33476;50.984;3.538;2023-07-09T04:15:53;101813.41;;;23.77;55.53
47716;BME280;33476;50.984;3.538;2023-07-09T04:18:19;101806.38;;;23.76;55.86
47716;BME280;33476;50.984;3.538;2023-07-09T04:20:48;101801.91;;;23.76;56.16
47716;BME280;33476;50.984;3.538;2023-07-09T04:23:15;101797.13;;;23.80;56.23
47716;BME280;33476;50.984;3.538;2023-07-09T04:25:40;101796.97;;;23.81;56.57
47716;BME280;33476;50.984;3.538;2023-07-09T04:28:05;101802.16;;;23.83;56.39
47716;BME280;33476;50.984;3.538;2023-07-09T04:30:31;101800.94;;;23.87;56.61
47716;BME280;33476;50.984;3.538;2023-07-09T04:32:57;101802.63;;;23.88;56.78
47716;BME280;33476;50.984;3.538;2023-07-09T04:35:22;101795.31;;;23.90;56.81
47716;BME280;33476;50.984;3.538;2023-07-09T04:37:49;101790.41;;;23.95;56.58
47716;BME280;33476;50.984;3.538;2023-07-09T04:40:14;101785.78;;;23.97;56.78
47716;BME280;33476;50.984;3.538;2023-07-09T04:42:40;101786.78;;;23.96;56.65
47716;BME280;33476;50.984;3.538;2023-07-09T04:45:07;101786.47;;;23.99;56.84
47716;BME280;33476;50.984;3.538;2023-07-09T04:47:33;101784.25;;;24.04;56.96
47716;BME280;33476;50.984;3.538;2023-07-09T04:49:58;101783.28;;;24.05;56.65
47716;BME280;33476;50.984;3.538;2023-07-09T04:52:24;101794.66;;;24.07;56.92
47716;BME280;33476;50.984;3.538;2023-07-09T04:54:49;101780.59;;;24.05;57.03
47716;BME280;33476;50.984;3.538;2023-07-09T04:57:16;101788.63;;;24.05;57.28
47716;BME280;33476;50.984;3.538;2023-07-09T04:59:41;101787.22;;;24.11;57.31
47716;BME280;33476;50.984;3.538;2023-07-09T05:02:07;101783.28;;;24.15;56.89
47716;BME280;33476;50.984;3.538;2023-07-09T05:04:33;101785.41;;;24.21;57.08
47716;BME280;33476;50.984;3.538;2023-07-09T05:06:59;101779.94;;;24.23;57.19
47716;BME280;33476;50.984;3.538;2023-07-09T05:09:24;101781.50;;;24.25;57.00
47716;BME280;33476;50.984;3.538;2023-07-09T05:11:50;101786.53;;;24.28;57.00
47716;BME280;33476;50.984;3.538;2023-07-09T05:14:18;101787.25;;;24.30;57.34
47716;BME280;33476;50.984;3.538;2023-07-09T05:16:44;101791.22;;;24.36;56.91
47716;BME280;33476;50.984;3.538;2023-07-09T05:19:10;101794.34;;;24.41;57.00
47716;BME280;33476;50.984;3.538;2023-07-09T05:21:36;101802.34;;;24.41;56.95
47716;BME280;33476;50.984;3.538;2023-07-09T05:24:01;101812.03;;;24.42;56.71
47716;BME280;33476;50.984;3.538;2023-07-09T05:26:27;101806.25;;;24.47;56.90
47716;BME280;33476;50.984;3.538;2023-07-09T05:28:52;101822.88;;;24.50;56.42
47716;BME280;33476;50.984;3.538;2023-07-09T05:31:18;101824.53;;;24.51;56.78
47716;BME280;33476;50.984;3.538;2023-07-09T05:33:44;101823.13;;;24.57;56.62
47716;BME280;33476;50.984;3.538;2023-07-09T05:36:09;101817.53;;;24.60;56.83
47716;BME280;33476;50.984;3.538;2023-07-09T05:38:43;101829.75;;;24.62;56.48
47716;BME280;33476;50.984;3.538;2023-07-09T05:41:09;101823.00;;;24.58;56.72
47716;BME280;33476;50.984;3.538;2023-07-09T05:43:34;101834.09;;;24.63;56.77
47716;BME280;33476;50.984;3.538;2023-07-09T05:46:01;101830.31;;;24.66;56.71
47716;BME280;33476;50.984;3.538;2023-07-09T05:48:27;101834.78;;;24.65;56.71
47716;BME280;33476;50.984;3.538;2023-07-09T05:50:53;101834.94;;;24.64;56.70
47716;BME280;33476;50.984;3.538;2023-07-09T05:53:22;101845.22;;;24.69;56.59
47716;BME280;33476;50.984;3.538;2023-07-09T05:55:48;101850.25;;;24.72;56.68
47716;BME280;33476;50.984;3.538;2023-07-09T05:58:14;101846.19;;;24.77;56.49
47716;BME280;33476;50.984;3.538;2023-07-09T06:00:39;101845.22;;;24.78;56.95
47716;BME280;33476;50.984;3.538;2023-07-09T06:03:06;101842.81;;;24.85;56.27
47716;BME280;33476;50.984;3.538;2023-07-09T06:05:33;101846.03;;;24.98;56.18
47716;BME280;33476;50.984;3.538;2023-07-09T06:07:59;101839.88;;;25.07;56.20
47716;BME280;33476;50.984;3.538;2023-07-09T06:10:24;101845.75;;;25.20;56.00
47716;BME280;33476;50.984;3.538;2023-07-09T06:12:50;101847.16;;;25.25;56.03
47716;BME280;33476;50.984;3.538;2023-07-09T06:15:16;101851.81;;;25.32;55.65
47716;BME280;33476;50.984;3.538;2023-07-09T06:17:41;101849.50;;;25.37;55.66
47716;BME280;33476;50.984;3.538;2023-07-09T06:20:08;101852.47;;;25.44;55.59
47716;BME280;33476;50.984;3.538;2023-07-09T06:22:34;101846.38;;;25.52;55.32
47716;BME280;33476;50.984;3.538;2023-07-09T06:24:59;101842.66;;;25.62;54.96
47716;BME280;33476;50.984;3.538;2023-07-09T06:27:25;101848.44;;;25.77;55.15
47716;BME280;33476;50.984;3.538;2023-07-09T06:29:50;101841.19;;;25.87;55.17
47716;BME280;33476;50.984;3.538;2023-07-09T06:32:16;101840.28;;;25.96;54.67
47716;BME280;33476;50.984;3.538;2023-07-09T06:34:41;101840.00;;;25.99;54.69
47716;BME280;33476;50.984;3.538;2023-07-09T06:37:06;101843.63;;;26.08;54.51
47716;BME280;33476;50.984;3.538;2023-07-09T06:39:32;101846.09;;;26.19;54.16
47716;BME280;33476;50.984;3.538;2023-07-09T06:41:57;101851.69;;;26.26;54.00
47716;BME280;33476;50.984;3.538;2023-07-09T06:44:22;101857.56;;;26.29;54.00
47716;BME280;33476;50.984;3.538;2023-07-09T06:46:50;101861.50;;;26.35;53.62
47716;BME280;33476;50.984;3.538;2023-07-09T06:49:16;101865.44;;;26.41;53.88
47716;BME280;33476;50.984;3.538;2023-07-09T06:51:41;101883.28;;;26.50;53.54
47716;BME280;33476;50.984;3.538;2023-07-09T06:54:08;101881.69;;;26.57;53.34
47716;BME280;33476;50.984;3.538;2023-07-09T06:56:34;101887.25;;;26.64;53.16
47716;BME280;33476;50.984;3.538;2023-07-09T06:58:59;101882.88;;;26.80;53.00
47716;BME280;33476;50.984;3.538;2023-07-09T07:01:25;101884.69;;;26.90;52.35
47716;BME280;33476;50.984;3.538;2023-07-09T07:03:50;101883.97;;;26.87;52.45
47716;BME280;33476;50.984;3.538;2023-07-09T07:06:15;101879.16;;;26.91;52.42
47716;BME280;33476;50.984;3.538;2023-07-09T07:08:41;101879.50;;;26.96;52.37
47716;BME280;33476;50.984;3.538;2023-07-09T07:11:06;101874.38;;;27.03;52.48
47716;BME280;33476;50.984;3.538;2023-07-09T07:13:35;101869.09;;;27.11;51.75
47716;BME280;33476;50.984;3.538;2023-07-09T07:16:02;101862.97;;;27.19;52.08
47716;BME280;33476;50.984;3.538;2023-07-09T07:18:28;101865.72;;;27.27;51.63
47716;BME280;33476;50.984;3.538;2023-07-09T07:20:53;101864.19;;;27.24;51.90
47716;BME280;33476;50.984;3.538;2023-07-09T07:23:19;101857.88;;;27.33;51.41
47716;BME280;33476;50.984;3.538;2023-07-09T07:25:45;101855.75;;;27.45;51.24
47716;BME280;33476;50.984;3.538;2023-07-09T07:28:11;101863.22;;;27.59;51.24
47716;BME280;33476;50.984;3.538;2023-07-09T07:30:36;101859.81;;;27.75;51.05
47716;BME280;33476;50.984;3.538;2023-07-09T07:33:02;101855.84;;;27.87;50.66
47716;BME280;33476;50.984;3.538;2023-07-09T07:35:27;101852.34;;;27.95;50.41
47716;BME280;33476;50.984;3.538;2023-07-09T07:37:53;101851.91;;;28.08;50.00
47716;BME280;33476;50.984;3.538;2023-07-09T07:40:18;101853.78;;;28.23;49.81
47716;BME280;33476;50.984;3.538;2023-07-09T07:42:44;101853.28;;;28.28;49.61
47716;BME280;33476;50.984;3.538;2023-07-09T07:45:09;101853.84;;;28.40;49.36
47716;BME280;33476;50.984;3.538;2023-07-09T07:47:35;101844.81;;;28.49;48.91
47716;BME280;33476;50.984;3.538;2023-07-09T07:50:00;101845.66;;;28.58;48.93
47716;BME280;33476;50.984;3.538;2023-07-09T07:52:27;101839.28;;;28.67;48.71
47716;BME280;33476;50.984;3.538;2023-07-09T07:54:53;101832.22;;;28.74;48.10
47716;BME280;33476;50.984;3.538;2023-07-09T07:57:18;101827.50;;;28.84;48.06
47716;BME280;33476;50.984;3.538;2023-07-09T07:59:44;101823.50;;;28.96;47.56
47716;BME280;33476;50.984;3.538;2023-07-09T08:02:12;101825.66;;;29.09;47.10
47716;BME280;33476;50.984;3.538;2023-07-09T08:04:39;101823.63;;;29.19;46.72
47716;BME280;33476;50.984;3.538;2023-07-09T08:07:07;101822.94;;;29.25;46.78
47716;BME280;33476;50.984;3.538;2023-07-09T08:09:33;101824.13;;;29.31;46.39
47716;BME280;33476;50.984;3.538;2023-07-09T08:11:59;101821.91;;;29.34;46.49
47716;BME280;33476;50.984;3.538;2023-07-09T08:14:25;101816.84;;;29.48;46.27
47716;BME280;33476;50.984;3.538;2023-07-09T08:16:51;101815.47;;;29.60;46.65
47716;BME280;33476;50.984;3.538;2023-07-09T08:19:18;101817.94;;;29.70;45.66
47716;BME280;33476;50.984;3.538;2023-07-09T08:21:45;101820.44;;;29.79;45.54
47716;BME280;33476;50.984;3.538;2023-07-09T08:24:10;101820.28;;;29.81;45.55
47716;BME280;33476;50.984;3.538;2023-07-09T08:26:36;101814.84;;;29.89;45.52
47716;BME280;33476;50.984;3.538;2023-07-09T08:29:03;101818.16;;;29.99;44.73
47716;BME280;33476;50.984;3.538;2023-07-09T08:31:30;101830.41;;;30.10;44.62
47716;BME280;33476;50.984;3.538;2023-07-09T08:33:55;101832.91;;;30.11;43.80
47716;BME280;33476;50.984;3.538;2023-07-09T08:36:21;101833.06;;;30.18;44.01
47716;BME280;33476;50.984;3.538;2023-07-09T08:38:46;101835.81;;;30.33;44.05
47716;BME280;33476;50.984;3.538;2023-07-09T08:41:37;101838.00;;;30.37;43.62
47716;BME280;33476;50.984;3.538;2023-07-09T08:49:58;101849.34;;;30.79;42.88
47716;BME280;33476;50.984;3.538;2023-07-09T08:52:37;101844.78;;;30.79;43.00
47716;BME280;33476;50.984;3.538;2023-07-09T08:55:09;101837.75;;;30.93;43.41
47716;BME280;33476;50.984;3.538;2023-07-09T08:57:46;101832.38;;;31.08;43.31
47716;BME280;33476;50.984;3.538;2023-07-09T09:00:24;101826.19;;;31.22;43.13
47716;BME280;33476;50.984;3.538;2023-07-09T09:05:46;101823.59;;;31.28;42.99
47716;BME280;33476;50.984;3.538;2023-07-09T09:10:55;101841.03;;;31.18;42.14
47716;BME280;33476;50.984;3.538;2023-07-09T09:13:25;101848.19;;;31.11;42.01
47716;BME280;33476;50.984;3.538;2023-07-09T09:15:54;101851.72;;;31.11;42.26
47716;BME280;33476;50.984;3.538;2023-07-09T09:18:29;101845.56;;;31.02;42.53
47716;BME280;33476;50.984;3.538;2023-07-09T09:21:13;101862.78;;;30.87;43.17
47716;BME280;33476;50.984;3.538;2023-07-09T09:23:44;101878.94;;;30.87;43.16
47716;BME280;33476;50.984;3.538;2023-07-09T09:28:52;101889.31;;;30.75;43.56
47716;BME280;33476;50.984;3.538;2023-07-09T09:31:17;101899.63;;;30.71;44.02
47716;BME280;33476;50.984;3.538;2023-07-09T09:33:46;101891.75;;;30.62;43.58
47716;BME280;33476;50.984;3.538;2023-07-09T09:36:19;101903.47;;;30.46;44.13
47716;BME280;33476;50.984;3.538;2023-07-09T09:38:45;101900.00;;;30.37;44.18
47716;BME280;33476;50.984;3.538;2023-07-09T09:41:20;101912.91;;;30.11;44.57
47716;BME280;33476;50.984;3.538;2023-07-09T09:43:47;101921.16;;;30.01;44.71
47716;BME280;33476;50.984;3.538;2023-07-09T09:46:26;101927.97;;;29.89;45.09
47716;BME280;33476;50.984;3.538;2023-07-09T09:48:59;101942.63;;;29.78;45.15
47716;BME280;33476;50.984;3.538;2023-07-09T09:51:26;101948.56;;;29.65;45.07
47716;BME280;33476;50.984;3.538;2023-07-09T09:53:57;101957.66;;;29.56;45.61
47716;BME280;33476;50.984;3.538;2023-07-09T09:56:27;101971.31;;;29.55;45.32
47716;BME280;33476;50.984;3.538;2023-07-09T09:58:54;101980.72;;;29.51;45.74
47716;BME280;33476;50.984;3.538;2023-07-09T10:01:26;101993.66;;;29.39;45.27
47716;BME280;33476;50.984;3.538;2023-07-09T10:03:56;101996.84;;;29.34;45.67
47716;BME280;33476;50.984;3.538;2023-07-09T10:06:31;101992.09;;;29.28;46.16
47716;BME280;33476;50.984;3.538;2023-07-09T10:09:13;101992.28;;;29.27;46.50
47716;BME280;33476;50.984;3.538;2023-07-09T10:11:48;101995.16;;;29.17;45.90
47716;BME280;33476;50.984;3.538;2023-07-09T10:16:53;102004.38;;;29.06;46.23
47716;BME280;33476;50.984;3.538;2023-07-09T10:19:53;102011.59;;;28.90;46.72
47716;BME280;33476;50.984;3.538;2023-07-09T10:23:19;102029.53;;;28.81;47.32
47716;BME280;33476;50.984;3.538;2023-07-09T10:25:31;102041.75;;;28.75;46.83
47716;BME280;33476;50.984;3.538;2023-07-09T10:33:49;102017.00;;;28.56;47.55
47716;BME280;33476;50.984;3.538;2023-07-09T10:39:13;101953.19;;;28.66;47.58
47716;BME280;33476;50.984;3.538;2023-07-09T10:41:41;101941.63;;;28.81;47.32
47716;BME280;33476;50.984;3.538;2023-07-09T10:44:38;101965.69;;;28.91;47.65
47716;BME280;33476;50.984;3.538;2023-07-09T10:47:09;101979.81;;;29.01;47.49
47716;BME280;33476;50.984;3.538;2023-07-09T10:49:40;101985.22;;;29.26;47.44
47716;BME280;33476;50.984;3.538;2023-07-09T10:52:19;101977.19;;;29.50;47.82
47716;BME280;33476;50.984;3.538;2023-07-09T10:57:54;101955.41;;;29.84;47.73
47716;BME280;33476;50.984;3.538;2023-07-09T11:00:33;101939.84;;;30.03;46.87
47716;BME280;33476;50.984;3.538;2023-07-09T11:03:12;101942.91;;;30.08;46.98
47716;BME280;33476;50.984;3.538;2023-07-09T11:05:39;101950.13;;;30.15;46.78
47716;BME280;33476;50.984;3.538;2023-07-09T11:08:16;101957.00;;;30.18;46.44
47716;BME280;33476;50.984;3.538;2023-07-09T11:10:52;101964.19;;;30.34;46.34
47716;BME280;33476;50.984;3.538;2023-07-09T11:13:31;101950.16;;;30.46;46.63
47716;BME280;33476;50.984;3.538;2023-07-09T11:16:00;101947.09;;;30.49;46.56
47716;BME280;33476;50.984;3.538;2023-07-09T11:18:31;101953.88;;;30.45;47.17
47716;BME280;33476;50.984;3.538;2023-07-09T11:21:07;101937.72;;;30.37;46.89
47716;BME280;33476;50.984;3.538;2023-07-09T11:23:53;101950.78;;;30.17;46.60
47716;BME280;33476;50.984;3.538;2023-07-09T11:26:25;101959.41;;;30.05;46.45
47716;BME280;33476;50.984;3.538;2023-07-09T11:31:39;101958.28;;;29.75;46.62
47716;BME280;33476;50.984;3.538;2023-07-09T11:34:14;101966.22;;;29.60;47.04
47716;BME280;33476;50.984;3.538;2023-07-09T11:41:48;101981.22;;;29.38;47.32
47716;BME280;33476;50.984;3.538;2023-07-09T11:44:19;101974.13;;;29.29;47.40
47716;BME280;33476;50.984;3.538;2023-07-09T11:46:59;101967.41;;;29.33;47.26
47716;BME280;33476;50.984;3.538;2023-07-09T11:49:35;101970.75;;;29.19;47.49
47716;BME280;33476;50.984;3.538;2023-07-09T11:52:04;101979.66;;;29.11;47.84
47716;BME280;33476;50.984;3.538;2023-07-09T11:54:37;101989.06;;;28.99;48.01
47716;BME280;33476;50.984;3.538;2023-07-09T11:57:10;102000.84;;;28.90;48.67
47716;BME280;33476;50.984;3.538;2023-07-09T11:59:41;102005.44;;;28.71;48.58
47716;BME280;33476;50.984;3.538;2023-07-09T12:02:15;102009.25;;;28.52;49.68
47716;BME280;33476;50.984;3.538;2023-07-09T12:04:41;102041.66;;;28.51;49.06
47716;BME280;33476;50.984;3.538;2023-07-09T12:07:06;102045.97;;;28.36;49.23
47716;BME280;33476;50.984;3.538;2023-07-09T12:09:41;102052.66;;;28.32;49.46
47716;BME280;33476;50.984;3.538;2023-07-09T12:12:28;102050.56;;;28.25;48.93
47716;BME280;33476;50.984;3.538;2023-07-09T12:14:54;102043.19;;;28.27;48.74
47716;BME280;33476;50.984;3.538;2023-07-09T12:17:23;102035.75;;;28.21;49.33
47716;BME280;33476;50.984;3.538;2023-07-09T12:19:52;102007.56;;;28.17;49.33
47716;BME280;33476;50.984;3.538;2023-07-09T12:22:21;102015.50;;;28.01;49.48
47716;BME280;33476;50.984;3.538;2023-07-09T12:24:49;102028.38;;;27.89;49.47
47716;BME280;33476;50.984;3.538;2023-07-09T12:27:24;102030.94;;;27.73;49.55
47716;BME280;33476;50.984;3.538;2023-07-09T12:29:56;102027.16;;;27.66;50.41
47716;BME280;33476;50.984;3.538;2023-07-09T12:32:22;102022.94;;;27.63;50.53
47716;BME280;33476;50.984;3.538;2023-07-09T12:34:51;102018.66;;;27.53;51.55
47716;BME280;33476;50.984;3.538;2023-07-09T12:37:18;102012.59;;;27.51;53.09
47716;BME280;33476;50.984;3.538;2023-07-09T12:39:44;102025.63;;;27.46;53.38
47716;BME280;33476;50.984;3.538;2023-07-09T12:42:19;102037.53;;;27.25;53.73
47716;BME280;33476;50.984;3.538;2023-07-09T12:44:46;102042.13;;;27.15;53.87
47716;BME280;33476;50.984;3.538;2023-07-09T12:47:14;102049.97;;;26.99;53.98
47716;BME280;33476;50.984;3.538;2023-07-09T12:49:42;102065.13;;;26.90;54.90
47716;BME280;33476;50.984;3.538;2023-07-09T12:52:19;102085.06;;;26.78;55.53
47716;BME280;33476;50.984;3.538;2023-07-09T12:54:55;102082.09;;;26.81;56.18
47716;BME280;33476;50.984;3.538;2023-07-09T12:57:20;102072.34;;;26.90;57.10
47716;BME280;33476;50.984;3.538;2023-07-09T12:59:46;102060.63;;;26.91;57.84
47716;BME280;33476;50.984;3.538;2023-07-09T13:02:29;102041.84;;;26.91;58.23
47716;BME280;33476;50.984;3.538;2023-07-09T13:05:03;102044.91;;;26.96;57.67
47716;BME280;33476;50.984;3.538;2023-07-09T13:07:38;102035.72;;;26.98;58.11
47716;BME280;33476;50.984;3.538;2023-07-09T13:10:22;102005.31;;;26.90;58.65
47716;BME280;33476;50.984;3.538;2023-07-09T13:12:51;101992.03;;;26.88;58.92
47716;BME280;33476;50.984;3.538;2023-07-09T13:15:24;101994.34;;;26.83;58.77
47716;BME280;33476;50.984;3.538;2023-07-09T13:17:56;102003.66;;;26.79;58.72
47716;BME280;33476;50.984;3.538;2023-07-09T13:20:22;101999.47;;;26.76;59.34
47716;BME280;33476;50.984;3.538;2023-07-09T13:22:47;101982.53;;;26.76;59.34
47716;BME280;33476;50.984;3.538;2023-07-09T13:25:13;101987.91;;;26.76;59.52
47716;BME280;33476;50.984;3.538;2023-07-09T13:27:38;101993.25;;;26.76;59.36
47716;BME280;33476;50.984;3.538;2023-07-09T13:30:04;101998.47;;;26.77;59.10
47716;BME280;33476;50.984;3.538;2023-07-09T13:32:29;101999.31;;;26.78;58.92
47716;BME280;33476;50.984;3.538;2023-07-09T13:34:55;101992.94;;;26.79;59.17
47716;BME280;33476;50.984;3.538;2023-07-09T13:37:20;101991.81;;;26.81;59.14
47716;BME280;33476;50.984;3.538;2023-07-09T13:39:45;101993.41;;;26.74;59.35